Time;durP1;ratioP1;P1;durP2;ratioP2;P2;SDS_P1;SDS_P2;PMS_P1;PMS_P2;Temp;Humidity;BMP_temperature;BMP_pressure;BME280_temperature;BME280_humidity;BME280_pressure;Samples;Min_cycle;Max_cycle;Signal;HPM_P1;HPM_P2
2023/09/03 00:00:55;;;;;;;6.78;2.92;;;;;;;13.10;100.00;101762.53;5048807;28;20431;-87
2023/09/03 00:03:30;;;;;;;6.47;3.08;;;;;;;13.08;100.00;101757.34;5030167;28;20441;-87
2023/09/03 00:05:58;;;;;;;8.30;3.20;;;;;;;13.08;100.00;101754.63;5032420;28;20415;-87
2023/09/03 00:08:27;;;;;;;7.53;3.17;;;;;;;13.14;100.00;101760.91;5027925;28;20419;-88
2023/09/03 00:10:56;;;;;;;6.38;3.00;;;;;;;13.12;100.00;101771.31;5029917;28;20427;-87
2023/09/03 00:13:24;;;;;;;7.35;2.97;;;;;;;13.10;100.00;101773.47;5027643;28;20431;-88
2023/09/03 00:15:53;;;;;;;8.93;3.40;;;;;;;13.12;100.00;101790.44;5032060;28;20433;-88
2023/09/03 00:18:21;;;;;;;7.55;3.30;;;;;;;13.09;100.00;101800.00;5047658;28;20426;-87
2023/09/03 00:21:02;;;;;;;9.80;3.60;;;;;;;13.06;100.00;101795.06;5020661;28;20431;-88
2023/09/03 00:23:31;;;;;;;7.22;3.53;;;;;;;13.04;100.00;101807.34;5026543;28;20787;-87
2023/09/03 00:26:00;;;;;;;6.93;3.30;;;;;;;12.99;100.00;101810.88;5026763;28;20414;-87
2023/09/03 00:28:30;;;;;;;6.93;3.28;;;;;;;12.99;100.00;101813.59;5031910;28;20431;-87
2023/09/03 00:31:02;;;;;;;9.25;3.60;;;;;;;13.00;100.00;101818.00;5031849;28;20411;-88
2023/09/03 00:33:31;;;;;;;8.90;3.85;;;;;;;12.90;100.00;101820.69;5031213;28;20419;-87
2023/09/03 00:36:08;;;;;;;8.30;3.83;;;;;;;12.88;100.00;101804.53;5030857;28;20419;-88
2023/09/03 00:38:38;;;;;;;10.05;4.00;;;;;;;12.98;100.00;101792.00;5029707;28;20435;-88
2023/09/03 00:41:07;;;;;;;9.35;4.22;;;;;;;12.87;100.00;101781.06;5030869;28;20423;-87
2023/09/03 00:43:35;;;;;;;8.60;4.55;;;;;;;12.83;100.00;101755.38;5047223;28;20438;-88
2023/09/03 00:46:07;;;;;;;12.00;4.97;;;;;;;12.80;100.00;101757.81;5028645;28;20466;-87
2023/09/03 00:48:37;;;;;;;10.10;4.68;;;;;;;12.99;100.00;101778.09;5047206;28;20430;-87
2023/09/03 00:51:09;;;;;;;11.18;5.15;;;;;;;12.91;100.00;101776.72;5029541;28;20423;-88
2023/09/03 00:53:39;;;;;;;10.30;4.90;;;;;;;12.81;100.00;101778.59;5030159;28;20430;-87
2023/09/03 00:56:11;;;;;;;11.23;5.53;;;;;;;12.79;100.00;101770.66;5045457;28;20909;-89
2023/09/03 00:58:39;;;;;;;14.10;6.65;;;;;;;12.80;100.00;101760.53;5029724;28;20434;-88
2023/09/03 01:01:08;;;;;;;14.40;7.28;;;;;;;12.85;100.00;101753.19;5030900;28;20419;-87
2023/09/03 01:03:36;;;;;;;12.80;6.90;;;;;;;12.88;100.00;101765.50;5030826;28;20427;-87
2023/09/03 01:06:06;;;;;;;14.43;7.05;;;;;;;12.77;100.00;101778.28;5031395;28;20423;-87
2023/09/03 01:08:36;;;;;;;14.80;7.47;;;;;;;12.67;100.00;101781.00;5031073;28;20426;-86
2023/09/03 01:11:19;;;;;;;14.93;7.20;;;;;;;12.68;100.00;101778.00;5047105;28;20442;-88
2023/09/03 01:13:54;;;;;;;13.48;7.80;;;;;;;12.69;100.00;101782.38;5025689;28;20434;-87
2023/09/03 01:16:28;;;;;;;13.98;7.85;;;;;;;12.70;100.00;101775.00;5046392;28;20422;-87
2023/09/03 01:19:10;;;;;;;12.77;7.43;;;;;;;12.64;100.00;101784.25;5043780;28;20419;-87
2023/09/03 01:22:04;;;;;;;14.57;7.30;;;;;;;12.61;100.00;101792.97;5026931;28;20419;-88
2023/09/03 01:24:48;;;;;;;12.70;7.38;;;;;;;12.66;100.00;101782.06;5039031;28;20435;-87
2023/09/03 01:27:27;;;;;;;15.48;7.50;;;;;;;12.60;100.00;101781.22;5032568;28;20442;-87
2023/09/03 01:29:56;;;;;;;16.00;7.45;;;;;;;12.56;100.00;101788.31;5030910;28;20434;-87
2023/09/03 01:32:26;;;;;;;13.90;7.75;;;;;;;12.53;100.00;101780.66;5032215;28;20423;-87
2023/09/03 01:34:55;;;;;;;14.38;7.53;;;;;;;12.51;100.00;101771.91;5044683;28;20950;-87
2023/09/03 01:37:24;;;;;;;13.50;7.57;;;;;;;12.55;100.00;101773.84;5030210;28;20767;-87
2023/09/03 01:39:53;;;;;;;13.63;7.77;;;;;;;12.56;100.00;101777.41;5027031;28;20411;-89
2023/09/03 01:42:22;;;;;;;13.85;7.68;;;;;;;12.53;100.00;101780.66;5031306;28;20787;-87
2023/09/03 01:44:50;;;;;;;15.70;7.63;;;;;;;12.52;100.00;101785.28;5036763;28;20423;-88
2023/09/03 01:47:28;;;;;;;14.73;7.70;;;;;;;12.55;100.00;101782.03;5031439;28;20411;-87
2023/09/03 01:50:07;;;;;;;14.65;7.53;;;;;;;12.59;100.00;101776.84;5029686;28;20426;-87
2023/09/03 01:52:43;;;;;;;12.10;6.72;;;;;;;12.51;100.00;101761.81;5028961;28;20427;-88
2023/09/03 01:55:14;;;;;;;12.77;7.13;;;;;;;12.48;100.00;101761.53;5022520;28;20423;-87
2023/09/03 01:57:47;;;;;;;13.10;6.93;;;;;;;12.52;100.00;101771.63;5026374;28;20419;-88
2023/09/03 02:00:16;;;;;;;13.75;6.93;;;;;;;12.55;100.00;101770.28;5029768;28;20419;-87
2023/09/03 02:02:54;;;;;;;11.20;6.63;;;;;;;12.54;100.00;101755.81;5030268;28;20415;-87
2023/09/03 02:05:23;;;;;;;14.43;6.53;;;;;;;12.49;100.00;101763.97;5044966;28;20430;-87
2023/09/03 02:07:52;;;;;;;16.60;6.57;;;;;;;12.52;100.00;101759.91;5030720;28;21105;-88
2023/09/03 02:10:21;;;;;;;12.95;6.60;;;;;;;12.47;100.00;101757.13;5027121;28;20436;-88
2023/09/03 02:12:54;;;;;;;11.73;6.10;;;;;;;12.53;100.00;101761.56;5029110;28;20415;-87
2023/09/03 02:15:23;;;;;;;14.07;6.93;;;;;;;12.53;100.00;101756.91;5029979;28;20419;-86
2023/09/03 02:17:55;;;;;;;14.48;6.70;;;;;;;12.41;100.00;101765.31;5029478;28;20407;-88
2023/09/03 02:20:23;;;;;;;12.10;6.43;;;;;;;12.38;100.00;101765.03;5025986;28;20426;-86
2023/09/03 02:22:52;;;;;;;12.18;6.40;;;;;;;12.38;100.00;101768.56;5046335;28;20419;-87
2023/09/03 02:25:20;;;;;;;11.63;6.47;;;;;;;12.34;100.00;101756.53;5031937;28;20419;-87
2023/09/03 02:27:48;;;;;;;12.65;7.00;;;;;;;12.36;100.00;101765.28;5029858;28;20426;-86
2023/09/03 02:30:16;;;;;;;10.32;6.30;;;;;;;12.31;100.00;101765.25;5037893;28;20780;-86
2023/09/03 02:32:45;;;;;;;12.13;6.50;;;;;;;12.36;100.00;101765.28;5029176;28;20887;-86
2023/09/03 02:35:14;;;;;;;13.93;6.50;;;;;;;12.33;100.00;101744.00;5028987;28;20423;-87
2023/09/03 02:37:43;;;;;;;12.85;6.90;;;;;;;12.32;100.00;101745.06;5029717;28;20423;-88
2023/09/03 02:40:11;;;;;;;14.55;6.47;;;;;;;12.27;100.00;101774.25;5024892;28;20431;-86
2023/09/03 02:42:39;;;;;;;10.45;6.45;;;;;;;12.22;100.00;101777.75;5046209;28;20763;-86
2023/09/03 02:45:08;;;;;;;13.48;6.97;;;;;;;12.21;100.00;101776.94;5022178;28;20424;-87
2023/09/03 02:47:37;;;;;;;15.70;6.97;;;;;;;12.24;100.00;101781.88;5029830;28;20414;-87
2023/09/03 02:50:06;;;;;;;13.57;6.72;;;;;;;12.23;100.00;101790.31;5028851;28;20427;-87
2023/09/03 02:52:36;;;;;;;12.63;6.60;;;;;;;12.23;100.00;101802.03;5030004;28;20419;-87
2023/09/03 02:55:05;;;;;;;12.15;6.57;;;;;;;12.19;100.00;101797.38;5030904;28;20768;-87
2023/09/03 02:57:33;;;;;;;13.30;6.47;;;;;;;12.20;100.00;101804.50;5027392;28;20450;-87
2023/09/03 03:00:01;;;;;;;11.80;6.80;;;;;;;12.23;100.00;101815.69;5028324;28;20426;-87
2023/09/03 03:02:30;;;;;;;11.82;6.43;;;;;;;12.22;100.00;101811.34;5045803;28;20423;-86
2023/09/03 03:04:58;;;;;;;12.80;6.57;;;;;;;12.22;100.00;101819.53;5041065;28;20427;-86
2023/09/03 03:07:26;;;;;;;11.60;6.00;;;;;;;12.20;100.00;101829.88;5029473;28;20423;-87
2023/09/03 03:09:56;;;;;;;10.73;5.93;;;;;;;12.21;100.00;101822.53;5028675;28;20453;-87
2023/09/03 03:12:24;;;;;;;10.95;5.90;;;;;;;12.19;100.00;101820.06;5031317;28;20434;-86
2023/09/03 03:14:53;;;;;;;12.02;5.70;;;;;;;12.21;100.00;101834.25;5027778;28;20425;-87
2023/09/03 03:17:23;;;;;;;10.18;5.90;;;;;;;12.18;100.00;101831.22;5028856;28;20427;-87
2023/09/03 03:19:51;;;;;;;11.63;5.60;;;;;;;12.07;100.00;101827.63;5029205;28;20412;-87
2023/09/03 03:22:20;;;;;;;11.80;5.32;;;;;;;12.12;100.00;101835.81;5035313;28;20418;-86
2023/09/03 03:24:49;;;;;;;10.50;5.43;;;;;;;12.06;100.00;101837.69;5029363;28;20426;-86
2023/09/03 03:27:20;;;;;;;10.30;5.00;;;;;;;12.03;100.00;101831.94;5029163;28;20419;-86
2023/09/03 03:29:48;;;;;;;11.00;5.50;;;;;;;11.96;100.00;101837.63;5028836;28;20466;-87
2023/09/03 03:32:19;;;;;;;10.60;5.27;;;;;;;11.96;100.00;101834.91;5028261;28;20423;-86
2023/09/03 03:34:51;;;;;;;8.85;5.00;;;;;;;11.93;100.00;101840.81;5023614;28;21150;-86
2023/09/03 03:37:19;;;;;;;9.48;5.40;;;;;;;11.92;100.00;101841.94;5028949;28;20427;-86
2023/09/03 03:39:50;;;;;;;11.23;4.97;;;;;;;11.91;100.00;101840.28;5023805;28;20415;-87
2023/09/03 03:42:25;;;;;;;9.80;5.17;;;;;;;11.91;100.00;101843.00;5044569;28;20497;-87
2023/09/03 03:44:53;;;;;;;9.30;5.03;;;;;;;11.93;100.00;101846.28;5029304;28;20737;-88
2023/09/03 03:47:23;;;;;;;10.10;5.40;;;;;;;11.91;100.00;101849.25;5026931;28;20809;-87
2023/09/03 03:49:51;;;;;;;9.80;5.13;;;;;;;11.83;100.00;101852.47;5044517;28;20433;-87
2023/09/03 03:52:19;;;;;;;12.95;5.47;;;;;;;11.77;100.00;101842.63;5025606;28;20428;-86
2023/09/03 03:54:48;;;;;;;12.65;5.68;;;;;;;11.79;100.00;101834.16;5028951;28;20805;-87
2023/09/03 03:57:16;;;;;;;12.27;5.47;;;;;;;11.76;100.00;101829.25;5044443;28;20427;-87
2023/09/03 03:59:46;;;;;;;9.60;5.28;;;;;;;11.69;100.00;101819.34;5025820;28;20422;-86
2023/09/03 04:02:19;;;;;;;9.98;5.40;;;;;;;11.66;100.00;101821.78;5029156;28;20422;-86
2023/09/03 04:04:47;;;;;;;10.10;5.07;;;;;;;11.64;100.00;101827.50;5046881;28;20427;-86
2023/09/03 04:07:20;;;;;;;10.10;5.33;;;;;;;11.62;100.00;101823.41;5031371;28;20434;-87
2023/09/03 04:09:54;;;;;;;10.60;5.05;;;;;;;11.57;100.00;101827.72;5048210;28;20419;-86
2023/09/03 04:12:23;;;;;;;10.57;4.90;;;;;;;11.53;100.00;101832.03;5038217;28;20422;-87
2023/09/03 04:14:53;;;;;;;14.23;5.50;;;;;;;11.53;100.00;101831.19;5018266;28;20427;-87
2023/09/03 04:17:21;;;;;;;11.70;5.45;;;;;;;11.58;100.00;101844.88;5033035;28;20426;-86
2023/09/03 04:19:50;;;;;;;11.98;4.97;;;;;;;11.53;100.00;101837.50;5032082;28;20425;-88
2023/09/03 04:22:18;;;;;;;9.73;5.20;;;;;;;11.60;100.00;101850.06;5032523;28;20422;-88
2023/09/03 04:24:52;;;;;;;9.63;5.30;;;;;;;11.65;100.00;101852.84;5031204;28;20426;-87
2023/09/03 04:27:25;;;;;;;10.00;5.05;;;;;;;11.63;100.00;101868.63;5029414;28;20927;-87
2023/09/03 04:29:55;;;;;;;12.18;5.05;;;;;;;11.53;100.00;101853.84;5032069;28;20752;-87
2023/09/03 04:32:23;;;;;;;13.88;5.35;;;;;;;11.57;100.00;101852.25;5042647;28;20427;-86
2023/09/03 04:34:53;;;;;;;10.80;5.10;;;;;;;11.60;100.00;101855.53;5047858;28;21395;-87
2023/09/03 04:37:23;;;;;;;10.77;5.53;;;;;;;11.56;100.00;101857.97;5031329;28;20419;-88
2023/09/03 04:39:51;;;;;;;9.32;5.18;;;;;;;11.71;100.00;101857.25;5031469;28;20415;-88
2023/09/03 04:42:20;;;;;;;12.13;5.60;;;;;;;11.70;100.00;101864.63;5028875;28;20428;-87
2023/09/03 04:44:49;;;;;;;10.88;5.10;;;;;;;11.69;100.00;101873.06;5047939;28;20494;-88
2023/09/03 04:47:20;;;;;;;9.60;5.10;;;;;;;11.68;100.00;101890.50;5033815;28;20423;-87
2023/09/03 04:49:48;;;;;;;11.90;5.30;;;;;;;11.68;100.00;101891.34;5030832;28;20960;-87
2023/09/03 04:52:16;;;;;;;12.70;5.35;;;;;;;11.70;100.00;101896.53;5030755;28;20434;-87
2023/09/03 04:54:44;;;;;;;12.57;5.32;;;;;;;11.74;100.00;101897.69;5046659;28;20435;-88
2023/09/03 04:57:13;;;;;;;9.03;5.10;;;;;;;11.73;100.00;101905.03;5031027;28;20415;-87
2023/09/03 04:59:41;;;;;;;12.57;5.28;;;;;;;11.72;100.00;101908.00;5030910;28;20415;-86
2023/09/03 05:02:09;;;;;;;10.45;4.90;;;;;;;11.74;100.00;101906.66;5028743;28;20427;-87
2023/09/03 05:04:39;;;;;;;9.17;4.73;;;;;;;11.77;100.00;101915.44;5045987;28;20903;-88
2023/09/03 05:07:12;;;;;;;12.05;4.95;;;;;;;11.76;100.00;101914.59;5031380;28;20427;-86
2023/09/03 05:09:45;;;;;;;14.90;5.93;;;;;;;11.77;100.00;101908.06;5046769;28;20410;-87
2023/09/03 05:12:14;;;;;;;8.90;5.03;;;;;;;11.79;100.00;101911.34;5029646;28;20419;-87
2023/09/03 05:14:45;;;;;;;11.25;5.03;;;;;;;11.80;100.00;101909.47;5030144;28;20430;-87
2023/09/03 05:17:14;;;;;;;14.00;5.37;;;;;;;11.81;100.00;101911.13;5032073;28;20422;-88
2023/09/03 05:19:45;;;;;;;7.63;4.85;;;;;;;11.86;100.00;101922.91;5029541;28;20779;-87
2023/09/03 05:22:13;;;;;;;12.03;5.33;;;;;;;11.86;100.00;101913.88;5046442;28;20489;-88
2023/09/03 05:24:42;;;;;;;13.50;5.10;;;;;;;11.95;100.00;101911.53;5029920;28;20423;-87
2023/09/03 05:27:10;;;;;;;9.93;5.00;;;;;;;12.03;100.00;101911.06;5031640;28;20434;-87
2023/09/03 05:29:39;;;;;;;9.15;4.68;;;;;;;12.07;100.00;101910.28;5039248;28;20957;-87
2023/09/03 05:32:07;;;;;;;10.75;5.13;;;;;;;12.07;100.00;101913.00;5030162;28;20415;-87
2023/09/03 05:34:36;;;;;;;10.63;5.15;;;;;;;12.14;100.00;101911.97;5031059;28;20431;-88
2023/09/03 05:37:06;;;;;;;11.20;5.70;;;;;;;12.14;100.00;101914.69;5020934;28;20975;-87
2023/09/03 05:39:34;;;;;;;11.63;6.38;;;;;;;12.32;100.00;101917.03;5029771;28;20430;-88
2023/09/03 05:42:03;;;;;;;11.47;6.47;;;;;;;12.35;100.00;101908.31;5023291;28;20896;-86
2023/09/03 05:44:31;;;;;;;12.85;6.82;;;;;;;12.42;100.00;101919.84;5030722;28;20430;-88
2023/09/03 05:46:59;;;;;;;13.13;7.38;;;;;;;12.45;100.00;101917.69;5041240;28;20432;-87
2023/09/03 05:49:28;;;;;;;15.45;8.15;;;;;;;12.49;100.00;101910.59;5026564;28;20427;-87
2023/09/03 05:51:56;;;;;;;17.58;7.97;;;;;;;12.51;100.00;101902.97;5028637;28;20417;-87
2023/09/03 05:54:27;;;;;;;14.32;7.97;;;;;;;12.64;100.00;101912.63;5030326;28;20426;-87
2023/09/03 05:56:55;;;;;;;15.07;7.13;;;;;;;12.65;100.00;101912.34;5031159;28;20418;-87
2023/09/03 05:59:30;;;;;;;12.82;7.30;;;;;;;12.73;100.00;101919.22;5030423;28;20415;-87
2023/09/03 06:01:59;;;;;;;13.02;7.47;;;;;;;12.84;100.00;101922.81;5043377;28;20918;-87
2023/09/03 06:04:30;;;;;;;15.40;7.47;;;;;;;12.97;100.00;101918.78;5029677;28;20776;-85
2023/09/03 06:07:02;;;;;;;12.27;7.15;;;;;;;12.97;100.00;101916.91;5029666;28;20435;-86
2023/09/03 06:09:32;;;;;;;11.60;6.57;;;;;;;13.17;100.00;101918.88;5027333;28;20427;-86
2023/09/03 06:12:00;;;;;;;13.52;6.43;;;;;;;13.24;100.00;101916.75;5044457;28;20786;-87
2023/09/03 06:14:28;;;;;;;12.07;6.30;;;;;;;13.23;100.00;101933.41;5029353;28;20996;-87
2023/09/03 06:16:56;;;;;;;11.77;6.10;;;;;;;13.41;100.00;101930.22;5029782;28;20434;-86
2023/09/03 06:19:30;;;;;;;10.65;5.68;;;;;;;13.27;100.00;101938.09;5026239;28;20417;-87
2023/09/03 06:21:58;;;;;;;11.85;5.82;;;;;;;13.34;100.00;101945.19;5029736;28;20415;-86
2023/09/03 06:24:33;;;;;;;10.45;5.97;;;;;;;13.27;100.00;101934.50;5045242;28;20438;-86
2023/09/03 06:27:02;;;;;;;13.32;6.25;;;;;;;13.29;100.00;101939.72;5019930;28;20452;-86
2023/09/03 06:29:30;;;;;;;13.95;6.32;;;;;;;13.22;100.00;101940.78;5029724;28;20884;-87
2023/09/03 06:31:59;;;;;;;12.53;6.73;;;;;;;13.27;100.00;101938.09;5029901;28;20427;-86
2023/09/03 06:34:27;;;;;;;12.05;6.25;;;;;;;13.32;100.00;101940.00;5046138;28;21329;-86
2023/09/03 06:37:00;;;;;;;12.65;6.32;;;;;;;13.31;100.00;101941.09;5029224;28;20427;-86
2023/09/03 06:39:30;;;;;;;12.18;5.80;;;;;;;13.31;100.00;101935.63;5042643;28;20424;-87
2023/09/03 06:42:01;;;;;;;13.85;6.25;;;;;;;13.33;100.00;101938.91;5027407;28;20441;-86
2023/09/03 06:44:30;;;;;;;10.88;6.32;;;;;;;13.34;100.00;101939.72;5029298;28;20887;-86
2023/09/03 06:46:58;;;;;;;12.48;6.75;;;;;;;13.44;100.00;101950.75;5029481;28;21173;-87
2023/09/03 06:49:27;;;;;;;12.30;6.80;;;;;;;13.41;100.00;101943.09;5029402;28;20411;-87
2023/09/03 06:51:55;;;;;;;11.68;6.63;;;;;;;13.48;100.00;101949.13;5028428;28;20427;-87
2023/09/03 06:54:24;;;;;;;12.02;6.60;;;;;;;13.61;100.00;101953.25;5045516;28;20883;-87
2023/09/03 06:56:52;;;;;;;12.07;6.87;;;;;;;13.81;100.00;101968.06;5027881;28;20765;-86
2023/09/03 06:59:29;;;;;;;14.63;6.57;;;;;;;13.93;100.00;101966.75;5027070;28;20887;-87
2023/09/03 07:01:57;;;;;;;12.63;5.90;;;;;;;14.04;100.00;101964.84;5027906;28;20435;-87
2023/09/03 07:04:26;;;;;;;10.50;5.68;;;;;;;14.10;100.00;101987.59;5022284;28;20436;-87
2023/09/03 07:06:54;;;;;;;10.95;5.60;;;;;;;14.24;100.00;101987.88;5026726;28;20926;-85
2023/09/03 07:09:24;;;;;;;12.73;5.35;;;;;;;14.25;100.00;101992.22;5023708;28;20419;-86
2023/09/03 07:11:58;;;;;;;11.63;5.30;;;;;;;14.31;100.00;101982.09;5027326;28;20433;-89
2023/09/03 07:14:34;;;;;;;10.43;4.90;;;;;;;14.46;100.00;101993.09;5026293;28;20799;-87
2023/09/03 07:17:17;;;;;;;10.37;4.40;;;;;;;14.51;100.00;101986.78;5041367;28;20427;-87
2023/09/03 07:19:46;;;;;;;9.45;4.10;;;;;;;14.53;100.00;101984.56;5022312;28;20464;-85
2023/09/03 07:22:14;;;;;;;8.38;4.40;;;;;;;14.66;100.00;101985.97;5025551;28;20864;-85
2023/09/03 07:24:47;;;;;;;6.88;3.95;;;;;;;14.75;100.00;101985.16;5043211;28;20827;-86
2023/09/03 07:27:21;;;;;;;7.38;4.00;;;;;;;14.92;100.00;101987.56;5025185;28;20524;-86
2023/09/03 07:29:53;;;;;;;8.10;4.07;;;;;;;15.02;100.00;101986.72;5025867;28;20431;-85
2023/09/03 07:32:26;;;;;;;7.50;3.80;;;;;;;15.01;100.00;101984.28;5027222;28;20962;-86
2023/09/03 07:34:59;;;;;;;10.10;4.05;;;;;;;14.85;100.00;101988.97;5029578;28;21124;-86
2023/09/03 07:37:32;;;;;;;8.20;3.15;;;;;;;15.02;100.00;101999.63;5028730;28;20431;-86
2023/09/03 07:40:08;;;;;;;6.82;3.22;;;;;;;15.09;100.00;102008.38;5031876;28;20437;-86
2023/09/03 07:42:42;;;;;;;9.70;4.47;;;;;;;15.18;100.00;102005.88;5031528;28;20915;-88
2023/09/03 07:45:13;;;;;;;5.90;3.03;;;;;;;15.28;100.00;102001.19;5040968;28;20430;-87
2023/09/03 07:47:41;;;;;;;8.20;3.05;;;;;;;15.32;100.00;101998.72;5036788;28;20431;-86
2023/09/03 07:50:13;;;;;;;7.07;2.90;;;;;;;15.43;100.00;101994.81;5048077;28;20419;-87
2023/09/03 07:52:44;;;;;;;6.25;2.85;;;;;;;15.46;100.00;101998.94;5030120;28;20419;-86
2023/09/03 07:55:12;;;;;;;7.10;2.55;;;;;;;15.42;100.00;102000.59;5026439;28;20427;-86
2023/09/03 07:57:45;;;;;;;5.27;2.40;;;;;;;15.27;100.00;102004.22;5026394;28;20438;-88
2023/09/03 08:00:15;;;;;;;8.82;2.63;;;;;;;15.43;100.00;102015.97;5027900;28;20431;-86
2023/09/03 08:02:43;;;;;;;6.13;2.45;;;;;;;15.54;100.00;102017.56;5028270;28;20439;-88
2023/09/03 08:05:12;;;;;;;6.40;2.60;;;;;;;15.58;100.00;102021.38;5027784;28;20891;-86
2023/09/03 08:07:41;;;;;;;3.88;2.00;;;;;;;15.67;100.00;102024.34;5032169;28;21412;-87
2023/09/03 08:10:10;;;;;;;4.30;2.40;;;;;;;15.95;100.00;102016.56;5031775;28;20415;-86
2023/09/03 08:12:38;;;;;;;6.25;2.20;;;;;;;15.89;100.00;102018.50;5032861;28;20434;-86
2023/09/03 08:15:08;;;;;;;11.13;5.00;;;;;;;15.89;100.00;102015.75;5027316;28;20426;-87
2023/09/03 08:17:40;;;;;;;5.82;2.30;;;;;;;16.00;100.00;102022.03;5028823;28;20427;-86
2023/09/03 08:20:15;;;;;;;4.30;2.23;;;;;;;15.97;100.00;102022.59;5027246;28;20527;-87
2023/09/03 08:22:43;;;;;;;5.85;2.15;;;;;;;15.88;100.00;102036.09;5041980;28;21048;-83
2023/09/03 08:25:23;;;;;;;6.28;2.05;;;;;;;15.97;100.00;102036.31;5032469;28;20426;-87
2023/09/03 08:27:51;;;;;;;4.60;2.15;;;;;;;16.06;100.00;102040.13;5030803;28;20431;-89
2023/09/03 08:30:21;;;;;;;4.97;2.17;;;;;;;16.25;100.00;102034.75;4986325;28;20423;-86
2023/09/03 08:32:51;;;;;;;4.93;2.20;;;;;;;16.48;100.00;102024.97;5014688;28;20423;-87
2023/09/03 08:35:20;;;;;;;5.30;2.20;;;;;;;16.87;100.00;102022.47;5026414;28;20760;-88
2023/09/03 08:37:48;;;;;;;5.18;1.90;;;;;;;16.75;100.00;102023.66;5031166;28;20419;-90
2023/09/03 08:40:17;;;;;;;6.22;1.92;;;;;;;16.52;100.00;102033.47;5030469;28;20887;-89
2023/09/03 08:42:48;;;;;;;3.38;1.80;;;;;;;16.77;100.00;102032.44;5027744;28;20775;-92
2023/09/03 08:45:23;;;;;;;3.07;1.70;;;;;;;16.81;100.00;102033.50;5028892;28;20439;-90
2023/09/03 08:47:53;;;;;;;3.60;1.60;;;;;;;16.63;100.00;102026.78;5029672;28;20428;-88
2023/09/03 08:50:25;;;;;;;5.95;1.65;;;;;;;16.50;100.00;102024.69;5029826;28;20489;-91
2023/09/03 08:52:54;;;;;;;2.90;1.60;;;;;;;16.51;100.00;102037.31;5030303;28;20427;-90
2023/09/03 08:55:23;;;;;;;4.85;1.60;;;;;;;16.69;100.00;102033.06;5030715;28;20431;-91
2023/09/03 08:57:54;;;;;;;5.90;1.60;;;;;;;16.71;100.00;102022.59;5027096;28;21749;-88
2023/09/03 09:00:22;;;;;;;4.35;1.52;;;;;;;17.01;100.00;102023.44;5029693;28;20430;-89
2023/09/03 09:02:53;;;;;;;5.07;1.73;;;;;;;16.91;100.00;102029.84;5029169;28;20434;-91
2023/09/03 09:05:24;;;;;;;4.22;1.60;;;;;;;17.04;100.00;102030.28;5045795;28;20429;-91
2023/09/03 09:07:52;;;;;;;5.20;1.70;;;;;;;16.91;100.00;102026.28;5028897;28;22574;-91
2023/09/03 09:10:25;;;;;;;4.25;1.60;;;;;;;16.99;100.00;102028.41;5027746;28;20434;-88
2023/09/03 09:13:01;;;;;;;4.72;1.70;;;;;;;17.04;100.00;102030.28;5047277;28;20446;-90
2023/09/03 09:15:29;;;;;;;4.75;1.63;;;;;;;17.08;100.00;102036.84;5045620;28;20434;-90
2023/09/03 09:17:59;;;;;;;3.83;1.60;;;;;;;16.98;100.00;102041.34;5027464;28;20434;-91
2023/09/03 09:20:27;;;;;;;5.15;1.85;;;;;;;16.98;100.00;102030.31;5028332;28;20435;-91
2023/09/03 09:23:01;;;;;;;3.90;1.58;;;;;;;17.00;100.00;102025.38;5039958;28;20435;-90
2023/09/03 09:25:29;;;;;;;4.28;1.60;;;;;;;17.09;100.00;102017.28;5048302;28;20423;-90
2023/09/03 09:27:58;;;;;;;3.05;1.50;;;;;;;17.20;100.00;102031.75;5046382;28;20438;-88
2023/09/03 09:30:26;;;;;;;3.72;1.60;;;;;;;17.19;100.00;102016.38;5044772;28;20419;-89
2023/09/03 09:33:05;;;;;;;4.75;1.65;;;;;;;17.25;100.00;102030.88;5030415;28;20430;-94
2023/09/03 09:35:34;;;;;;;6.45;1.70;;;;;;;17.43;100.00;102026.56;5046695;28;20431;-92
2023/09/03 09:38:09;;;;;;;3.92;1.70;;;;;;;17.37;100.00;102020.28;5030487;28;20423;-91
2023/09/03 09:40:37;;;;;;;3.10;1.52;;;;;;;17.36;100.00;102021.41;5029187;28;20423;-91
2023/09/03 09:43:08;;;;;;;3.63;1.88;;;;;;;17.50;100.00;102029.78;5030385;28;20438;-91
2023/09/03 09:45:49;;;;;;;4.05;1.55;;;;;;;17.65;100.00;102035.09;5025513;28;20432;-90
2023/09/03 09:48:24;;;;;;;4.35;1.60;;;;;;;17.78;100.00;102039.03;5031019;28;20438;-88
2023/09/03 09:50:52;;;;;;;3.03;1.60;;;;;;;17.85;100.00;102052.44;5029898;28;20423;-86
2023/09/03 09:53:27;;;;;;;4.57;1.50;;;;;;;17.74;100.00;102049.00;5020090;28;20424;-92
2023/09/03 09:56:00;;;;;;;3.60;1.50;;;;;;;17.78;100.00;102041.81;5043555;28;20440;-90
2023/09/03 09:58:38;;;;;;;4.30;1.55;;;;;;;17.74;100.00;102042.69;5026994;28;20427;-89
2023/09/03 10:01:10;;;;;;;8.70;4.63;;;;;;;17.93;100.00;102051.81;5041854;28;20430;-91
2023/09/03 10:04:29;;;;;;;3.40;1.60;;;;;;;18.12;100.00;102046.34;5030774;28;20435;-89
2023/09/03 10:07:04;;;;;;;3.97;1.70;;;;;;;18.10;100.00;102048.53;5043051;28;20426;-90
2023/09/03 10:09:35;;;;;;;2.83;1.60;;;;;;;18.06;100.00;102052.22;5025074;28;20421;-91
2023/09/03 10:12:04;;;;;;;3.55;1.60;;;;;;;18.08;100.00;102048.03;5045678;28;20431;-90
2023/09/03 10:14:38;;;;;;;3.67;1.55;;;;;;;18.18;100.00;102047.88;5028109;28;20871;-88
2023/09/03 10:17:12;;;;;;;3.40;1.60;;;;;;;18.37;100.00;102055.34;5029343;28;20430;-86
2023/09/03 10:19:52;;;;;;;4.00;1.58;;;;;;;18.47;100.00;102052.41;5028992;28;20427;-87
2023/09/03 10:22:31;;;;;;;4.40;1.73;;;;;;;18.37;100.00;102052.56;5030805;28;20442;-92
2023/09/03 10:25:08;;;;;;;5.18;1.90;;;;;;;18.33;100.00;102060.63;5046457;28;20515;-90
2023/09/03 10:27:39;;;;;;;3.50;1.67;;;;;;;18.25;100.00;102068.75;5048118;28;20423;-88
2023/09/03 10:30:16;;;;;;;3.10;1.60;;;;;;;18.36;100.00;102057.25;5029129;28;20419;-88
2023/09/03 10:32:46;;;;;;;3.72;1.65;;;;;;;18.22;100.00;102072.09;5027277;28;20419;-91
2023/09/03 10:35:14;;;;;;;5.35;1.73;;;;;;;18.35;100.00;102071.34;5046582;28;20891;-89
2023/09/03 10:37:51;;;;;;;4.93;2.00;;;;;;;18.29;100.00;102072.53;5028169;28;20430;-92
2023/09/03 10:40:21;;;;;;;3.58;1.88;;;;;;;18.32;100.00;102070.00;5029145;28;20975;-89
2023/09/03 10:42:50;;;;;;;2.55;1.50;;;;;;;18.16;100.00;102069.41;5028979;28;20461;-91
2023/09/03 10:45:19;;;;;;;4.03;1.63;;;;;;;18.39;100.00;102075.13;5033372;28;20426;-88
2023/09/03 10:48:06;;;;;;;4.95;1.77;;;;;;;18.51;100.00;102074.69;5028534;28;20423;-89
2023/09/03 10:50:42;;;;;;;4.78;1.90;;;;;;;18.67;100.00;102067.81;5028742;28;20922;-89
2023/09/03 10:53:39;;;;;;;3.88;1.63;;;;;;;18.72;100.00;102077.94;5030838;28;20431;-91
2023/09/03 10:56:09;;;;;;;3.92;1.73;;;;;;;18.83;100.00;102079.38;5032972;28;20784;-90
2023/09/03 10:59:01;;;;;;;5.73;1.80;;;;;;;18.97;100.00;102075.88;5028986;28;20415;-91
2023/09/03 11:01:34;;;;;;;3.88;1.70;;;;;;;18.79;100.00;102081.09;5045420;28;20423;-89
2023/09/03 11:04:07;;;;;;;4.17;1.70;;;;;;;18.81;100.00;102080.81;5028293;28;20434;-88
2023/09/03 11:06:36;;;;;;;4.40;1.70;;;;;;;18.85;100.00;102074.41;5028031;28;20431;-89
2023/09/03 11:09:24;;;;;;;4.85;1.85;;;;;;;18.85;100.00;102065.28;5029811;28;20760;-87
2023/09/03 11:12:00;;;;;;;3.60;1.60;;;;;;;18.87;100.00;102074.09;5027409;28;20831;-90
2023/09/03 11:14:34;;;;;;;8.35;4.10;;;;;;;19.01;100.00;102074.97;5033853;28;20439;-88
2023/09/03 11:17:11;;;;;;;4.60;1.85;;;;;;;18.99;100.00;102071.69;5031102;28;20420;-89
2023/09/03 11:19:44;;;;;;;3.90;1.75;;;;;;;19.14;100.00;102067.00;5032243;28;20418;-88
2023/09/03 11:22:12;;;;;;;3.72;1.70;;;;;;;19.16;100.00;102064.78;5031137;28;20423;-88
2023/09/03 11:24:48;;;;;;;4.68;1.65;;;;;;;19.10;100.00;102069.59;5041281;28;20434;-90
2023/09/03 11:27:21;;;;;;;3.65;1.65;;;;;;;18.97;100.00;102065.66;5032082;28;20438;-90
2023/09/03 11:29:50;;;;;;;4.72;1.67;;;;;;;19.11;100.00;102070.38;5032493;28;20933;-89